Time;durP1;ratioP1;P1;durP2;ratioP2;P2;SDS_P1;SDS_P2;PMS_P1;PMS_P2;Temp;Humidity;BMP_temperature;BMP_pressure;BME280_temperature;BME280_humidity;BME280_pressure;Samples;Min_cycle;Max_cycle;Signal;HPM_P1;HPM_P2
2022/05/05 00:01:28;;;;;;;0.00;0.00;;;8.20;99.90;;;;;;5095949;28;20126;-78
2022/05/05 00:03:55;;;;;;;0.28;0.00;;;8.20;99.90;;;;;;5113301;28;20087;-79
2022/05/05 00:06:21;;;;;;;0.00;0.00;;;8.20;99.90;;;;;;5096036;28;20058;-78
2022/05/05 00:08:47;;;;;;;0.15;0.00;;;8.10;99.90;;;;;;5096394;28;20048;-79
2022/05/05 00:16:41;;;;;;;0.10;0.10;;;8.00;99.90;;;;;;5117205;28;20184;-79
2022/05/05 00:19:06;;;;;;;0.00;0.00;;;8.00;99.90;;;;;;5117217;28;20078;-79
2022/05/05 00:21:32;;;;;;;0.00;0.00;;;7.90;99.90;;;;;;5117095;28;20036;-79
2022/05/05 00:23:58;;;;;;;0.00;0.00;;;8.00;99.90;;;;;;5117258;28;20073;-79
2022/05/05 00:26:24;;;;;;;0.00;0.00;;;8.00;99.90;;;;;;5100114;28;20036;-79
2022/05/05 00:28:49;;;;;;;0.00;0.00;;;7.90;99.90;;;;;;5116949;28;20039;-79
2022/05/05 00:31:15;;;;;;;0.13;0.10;;;7.90;99.90;;;;;;5116851;28;20055;-79
2022/05/05 00:33:41;;;;;;;0.15;0.08;;;7.80;99.90;;;;;;5099706;28;20078;-79
2022/05/05 00:36:07;;;;;;;0.00;0.00;;;7.80;99.90;;;;;;5116958;28;20044;-79
2022/05/05 00:38:34;;;;;;;0.20;0.00;;;7.80;99.90;;;;;;5099977;28;20147;-79
2022/05/05 00:40:59;;;;;;;0.00;0.00;;;7.70;99.90;;;;;;5116783;28;20069;-79
2022/05/05 00:43:25;;;;;;;8.77;0.52;;;7.70;99.90;;;;;;5099722;28;20044;-79
2022/05/05 00:45:51;;;;;;;1.30;0.40;;;7.70;99.90;;;;;;5116619;28;20135;-79
2022/05/05 00:48:17;;;;;;;8.65;0.75;;;7.70;99.90;;;;;;5116590;28;20079;-79
2022/05/05 00:50:43;;;;;;;0.15;0.00;;;7.70;99.90;;;;;;5117448;28;20435;-79
2022/05/05 00:53:08;;;;;;;1.65;0.68;;;7.70;99.90;;;;;;5116222;28;20047;-79
2022/05/05 00:55:38;;;;;;;0.00;0.00;;;7.60;99.90;;;;;;5116865;28;20043;-79
2022/05/05 00:58:04;;;;;;;0.00;0.00;;;7.60;99.90;;;;;;5116573;28;20043;-79
2022/05/05 01:00:32;;;;;;;0.10;0.03;;;7.60;99.90;;;;;;5116313;28;20047;-79
2022/05/05 01:03:00;;;;;;;0.00;0.00;;;7.60;99.90;;;;;;5099671;28;20059;-79
2022/05/05 01:05:30;;;;;;;0.00;0.00;;;7.60;99.90;;;;;;5099933;28;20066;-79
2022/05/05 01:07:57;;;;;;;0.00;0.00;;;7.60;99.90;;;;;;5099431;28;20071;-79
2022/05/05 01:10:24;;;;;;;0.00;0.00;;;7.60;99.90;;;;;;5099277;28;20096;-79
2022/05/05 01:12:50;;;;;;;0.20;0.03;;;7.60;99.90;;;;;;5116146;28;20085;-79
2022/05/05 01:15:16;;;;;;;0.10;0.00;;;7.50;99.90;;;;;;5116366;28;20048;-79
2022/05/05 01:17:43;;;;;;;0.00;0.00;;;7.60;99.90;;;;;;5099026;28;20043;-79
2022/05/05 01:20:21;;;;;;;0.00;0.00;;;7.60;99.90;;;;;;5099025;28;20087;-79
2022/05/05 01:22:47;;;;;;;0.10;0.10;;;7.60;99.90;;;;;;5098617;28;20040;-79
2022/05/05 01:28:11;;;;;;;0.00;0.00;;;7.50;99.90;;;;;;5115794;28;20483;-79
2022/05/05 01:30:43;;;;;;;0.00;0.00;;;7.60;99.90;;;;;;5116017;28;20039;-79
2022/05/05 01:33:13;;;;;;;0.30;0.30;;;7.50;99.90;;;;;;5098950;28;20050;-79
2022/05/05 01:35:40;;;;;;;0.57;0.25;;;7.50;99.90;;;;;;5115752;28;20051;-78
2022/05/05 01:38:12;;;;;;;0.22;0.05;;;7.40;99.90;;;;;;5115677;28;20043;-78
2022/05/05 01:40:39;;;;;;;0.00;0.00;;;7.40;99.90;;;;;;5115752;28;20134;-79
2022/05/05 01:43:08;;;;;;;0.05;0.05;;;7.40;99.90;;;;;;5098398;28;20098;-79
2022/05/05 01:45:37;;;;;;;0.00;0.00;;;7.30;99.90;;;;;;5115666;28;20054;-79
2022/05/05 01:48:03;;;;;;;0.43;0.17;;;7.30;99.90;;;;;;5115663;28;20046;-78
2022/05/05 01:50:32;;;;;;;0.10;0.10;;;7.20;99.90;;;;;;5098589;28;20055;-79
2022/05/05 01:52:59;;;;;;;11.15;0.63;;;7.20;99.90;;;;;;5098725;28;20433;-79
2022/05/05 01:55:25;;;;;;;0.00;0.00;;;7.20;99.90;;;;;;5098325;28;20100;-79
2022/05/05 01:57:51;;;;;;;0.00;0.00;;;7.20;99.90;;;;;;5098358;28;20491;-79
2022/05/05 02:00:18;;;;;;;0.17;0.10;;;7.10;99.90;;;;;;5115243;28;20043;-79
2022/05/05 02:02:44;;;;;;;0.00;0.00;;;7.10;99.90;;;;;;5114736;28;20105;-79
2022/05/05 02:05:14;;;;;;;0.47;0.30;;;7.10;99.90;;;;;;5098804;28;20087;-79
2022/05/05 02:07:41;;;;;;;0.08;0.00;;;7.10;99.90;;;;;;5098132;28;20043;-79
2022/05/05 02:10:08;;;;;;;1.27;0.20;;;7.10;99.90;;;;;;5098020;28;20127;-79
2022/05/05 02:12:38;;;;;;;2.55;0.00;;;7.10;99.90;;;;;;5114871;28;20052;-79
2022/05/05 02:15:08;;;;;;;0.05;0.00;;;7.10;99.90;;;;;;5114990;28;20043;-79
2022/05/05 02:17:40;;;;;;;0.00;0.00;;;7.10;99.90;;;;;;5115077;28;20047;-79
2022/05/05 02:20:07;;;;;;;0.03;0.00;;;7.00;99.90;;;;;;5114794;28;20052;-79
2022/05/05 02:22:33;;;;;;;0.00;0.00;;;7.00;99.90;;;;;;5114511;28;20079;-79
2022/05/05 02:24:59;;;;;;;0.00;0.00;;;7.00;99.90;;;;;;5115043;28;20390;-79
2022/05/05 02:27:25;;;;;;;0.00;0.00;;;7.00;99.90;;;;;;5114987;28;20085;-79
2022/05/05 02:29:51;;;;;;;1.08;0.55;;;7.10;99.90;;;;;;5114324;28;20123;-79
2022/05/05 02:32:17;;;;;;;0.00;0.00;;;6.90;99.90;;;;;;5097869;28;20398;-79
2022/05/05 02:34:47;;;;;;;9.80;0.10;;;6.90;99.90;;;;;;5113800;28;20052;-79
2022/05/05 02:39:58;;;;;;;0.20;0.00;;;6.90;99.90;;;;;;5114690;28;20048;-79
2022/05/05 02:42:24;;;;;;;0.10;0.10;;;6.80;99.90;;;;;;5114542;28;20093;-79
2022/05/05 02:44:50;;;;;;;0.30;0.00;;;6.90;99.90;;;;;;5097292;28;20063;-79
2022/05/05 02:47:16;;;;;;;0.70;0.70;;;6.90;99.90;;;;;;5114406;28;20055;-79
2022/05/05 02:49:41;;;;;;;0.10;0.10;;;6.80;99.90;;;;;;5097304;28;20054;-79
2022/05/05 02:52:08;;;;;;;0.65;0.00;;;6.80;99.90;;;;;;5114176;28;20045;-79
2022/05/05 02:54:47;;;;;;;0.00;0.00;;;6.80;99.90;;;;;;5097344;28;20044;-79
2022/05/05 02:57:15;;;;;;;0.15;0.13;;;6.80;99.90;;;;;;5097986;28;20130;-79
2022/05/05 02:59:41;;;;;;;0.08;0.03;;;6.80;99.90;;;;;;5114019;28;20044;-79
2022/05/05 03:02:08;;;;;;;0.00;0.00;;;6.70;99.90;;;;;;5096225;28;20548;-79
2022/05/05 03:04:34;;;;;;;0.00;0.00;;;6.70;99.90;;;;;;5113976;28;20134;-79
2022/05/05 03:07:00;;;;;;;0.10;0.10;;;6.70;99.90;;;;;;5114185;28;20047;-79
2022/05/05 03:09:29;;;;;;;0.00;0.00;;;6.60;99.90;;;;;;5113934;28;20055;-79
2022/05/05 03:11:54;;;;;;;0.00;0.00;;;6.60;99.90;;;;;;5114710;28;20376;-79
2022/05/05 03:14:20;;;;;;;0.00;0.00;;;6.50;99.90;;;;;;5113822;28;20168;-79
2022/05/05 03:16:46;;;;;;;0.00;0.00;;;6.60;99.90;;;;;;5114165;28;20052;-79
2022/05/05 03:19:12;;;;;;;0.20;0.20;;;6.50;99.90;;;;;;5114182;28;20387;-79
2022/05/05 03:21:37;;;;;;;0.15;0.05;;;6.40;99.90;;;;;;5113567;28;20083;-79
2022/05/05 03:24:04;;;;;;;0.10;0.08;;;6.50;99.90;;;;;;5113780;28;20044;-79
2022/05/05 03:26:30;;;;;;;0.00;0.00;;;6.40;99.90;;;;;;5096986;28;20059;-79
2022/05/05 03:28:56;;;;;;;0.35;0.28;;;6.30;99.90;;;;;;5113853;28;20401;-79
2022/05/05 03:31:22;;;;;;;0.03;0.03;;;6.30;99.90;;;;;;5113769;28;20082;-79
2022/05/05 03:33:48;;;;;;;0.00;0.00;;;6.20;99.90;;;;;;5114016;28;20425;-79
2022/05/05 03:36:14;;;;;;;0.00;0.00;;;6.20;99.90;;;;;;5113520;28;20039;-79
2022/05/05 03:38:40;;;;;;;0.00;0.00;;;6.20;99.90;;;;;;5096198;28;20058;-79
2022/05/05 03:41:05;;;;;;;0.00;0.00;;;6.20;99.90;;;;;;5113347;28;20375;-79
2022/05/05 03:43:32;;;;;;;0.10;0.00;;;6.20;99.90;;;;;;5096355;28;20134;-79
2022/05/05 03:45:58;;;;;;;9.82;0.55;;;6.20;99.90;;;;;;5096264;28;20472;-79
2022/05/05 03:48:23;;;;;;;0.45;0.10;;;6.20;99.90;;;;;;5112866;28;20054;-79
2022/05/05 03:50:49;;;;;;;0.00;0.00;;;6.20;99.90;;;;;;5113303;28;20035;-79
2022/05/05 03:53:15;;;;;;;0.38;0.30;;;6.10;99.90;;;;;;5113138;28;20096;-79
2022/05/05 03:55:40;;;;;;;1.45;0.40;;;6.10;99.90;;;;;;5113249;28;20040;-79
2022/05/05 03:58:06;;;;;;;0.40;0.22;;;6.10;99.90;;;;;;5113387;28;20134;-79
2022/05/05 04:00:31;;;;;;;0.00;0.00;;;6.10;99.90;;;;;;5095915;28;20067;-79
2022/05/05 04:05:41;;;;;;;0.00;0.00;;;6.10;99.90;;;;;;5113026;28;20043;-79
2022/05/05 04:08:08;;;;;;;0.47;0.40;;;6.10;99.90;;;;;;5113297;28;20059;-80
2022/05/05 04:10:33;;;;;;;0.63;0.22;;;6.10;99.90;;;;;;5096313;28;20382;-80
2022/05/05 04:12:59;;;;;;;0.52;0.28;;;6.10;99.90;;;;;;5113046;28;20084;-80
2022/05/05 04:15:25;;;;;;;0.30;0.30;;;6.20;99.90;;;;;;5096440;28;20051;-80
2022/05/05 04:17:51;;;;;;;1.17;0.00;;;6.20;99.90;;;;;;5112685;28;20063;-80
2022/05/05 04:20:18;;;;;;;0.10;0.00;;;6.20;99.90;;;;;;5112932;28;20402;-79
2022/05/05 04:22:44;;;;;;;0.85;0.47;;;6.30;99.90;;;;;;5113206;28;20043;-79
2022/05/05 04:25:12;;;;;;;0.00;0.00;;;6.30;99.90;;;;;;5112491;28;20389;-79
2022/05/05 04:27:39;;;;;;;0.13;0.13;;;6.30;99.90;;;;;;5111244;28;20048;-79
2022/05/05 04:30:06;;;;;;;0.22;0.00;;;6.40;99.90;;;;;;5110704;28;20051;-79
2022/05/05 04:32:31;;;;;;;2.38;0.90;;;6.50;99.90;;;;;;5112835;28;20040;-80
2022/05/05 04:34:57;;;;;;;0.15;0.10;;;6.50;99.90;;;;;;5095906;28;20047;-80
2022/05/05 04:37:23;;;;;;;0.00;0.00;;;6.60;99.90;;;;;;5095862;28;20394;-80
2022/05/05 04:39:48;;;;;;;0.75;0.08;;;6.60;99.90;;;;;;5112783;28;20040;-80
2022/05/05 04:42:15;;;;;;;0.20;0.00;;;6.70;99.90;;;;;;5095338;28;20052;-80
2022/05/05 04:44:41;;;;;;;0.00;0.00;;;6.80;99.90;;;;;;5113079;28;20062;-80
2022/05/05 04:47:07;;;;;;;0.40;0.10;;;6.80;99.90;;;;;;5112836;28;20120;-80
2022/05/05 04:49:33;;;;;;;0.00;0.00;;;6.90;99.90;;;;;;5112027;28;20097;-80
2022/05/05 04:51:59;;;;;;;0.00;0.00;;;7.00;99.90;;;;;;5112899;28;20052;-80
2022/05/05 04:54:25;;;;;;;0.20;0.10;;;7.00;99.90;;;;;;5095822;28;20036;-80
2022/05/05 04:56:50;;;;;;;0.10;0.10;;;7.10;99.90;;;;;;5112271;28;20047;-80
2022/05/05 04:59:16;;;;;;;0.28;0.15;;;7.10;99.90;;;;;;5114096;28;20047;-80
2022/05/05 05:01:42;;;;;;;0.20;0.20;;;7.20;99.90;;;;;;5116061;28;20447;-80
2022/05/05 05:04:07;;;;;;;0.00;0.00;;;7.20;99.90;;;;;;5099159;28;20044;-80
2022/05/05 05:06:33;;;;;;;0.15;0.10;;;7.30;99.90;;;;;;5116425;28;20050;-80
2022/05/05 05:08:59;;;;;;;0.22;0.05;;;7.30;99.90;;;;;;5099485;28;20050;-80
2022/05/05 05:11:25;;;;;;;0.30;0.30;;;7.30;99.90;;;;;;5099481;28;20485;-79
2022/05/05 05:13:51;;;;;;;0.40;0.20;;;7.40;99.90;;;;;;5116164;28;20491;-80
2022/05/05 05:16:16;;;;;;;0.00;0.00;;;7.40;99.90;;;;;;5099173;28;20134;-80
2022/05/05 05:18:42;;;;;;;0.00;0.00;;;7.40;99.90;;;;;;5099168;28;20142;-80
2022/05/05 05:21:08;;;;;;;0.00;0.00;;;7.50;99.90;;;;;;5116103;28;20138;-79
2022/05/05 05:23:34;;;;;;;0.00;0.00;;;7.50;99.90;;;;;;5098660;28;20050;-80
2022/05/05 05:25:59;;;;;;;0.70;0.22;;;7.50;99.90;;;;;;5116210;28;20044;-80
2022/05/05 05:28:25;;;;;;;4.53;1.00;;;7.50;99.90;;;;;;5115642;28;20479;-79
2022/05/05 05:30:51;;;;;;;1.23;0.70;;;7.50;99.90;;;;;;5098844;28;20056;-80
2022/05/05 05:33:17;;;;;;;0.17;0.17;;;7.50;99.90;;;;;;5115876;28;20055;-79
2022/05/05 05:35:47;;;;;;;0.00;0.00;;;7.60;99.90;;;;;;5098782;28;20043;-79
2022/05/05 05:38:14;;;;;;;0.03;0.03;;;7.60;99.90;;;;;;5115439;28;20079;-79
2022/05/05 05:40:40;;;;;;;0.00;0.00;;;7.70;99.90;;;;;;5115783;28;20047;-79
2022/05/05 05:43:06;;;;;;;0.00;0.00;;;7.70;99.90;;;;;;5115216;28;20056;-79
2022/05/05 05:45:32;;;;;;;0.08;0.00;;;7.90;99.90;;;;;;5115557;28;20036;-80
2022/05/05 05:47:58;;;;;;;0.50;0.10;;;7.90;99.90;;;;;;5115464;28;20039;-79
2022/05/05 05:50:23;;;;;;;0.00;0.00;;;8.00;99.90;;;;;;5116144;28;20520;-80
2022/05/05 05:52:49;;;;;;;0.10;0.00;;;8.10;99.90;;;;;;5115254;28;20047;-80
2022/05/05 05:55:16;;;;;;;0.30;0.25;;;8.30;99.90;;;;;;5114689;28;20403;-80
2022/05/05 05:57:42;;;;;;;0.00;0.00;;;8.40;99.90;;;;;;5115531;28;20395;-79
2022/05/05 06:00:08;;;;;;;0.00;0.00;;;8.50;99.90;;;;;;5115160;28;20044;-79
2022/05/05 06:05:19;;;;;;;0.20;0.10;;;8.70;99.90;;;;;;5115852;28;20131;-80
2022/05/05 06:07:45;;;;;;;0.00;0.00;;;8.80;99.90;;;;;;5115006;28;20047;-79
2022/05/05 06:10:11;;;;;;;0.00;0.00;;;8.80;99.90;;;;;;5114616;28;20087;-79
2022/05/05 06:12:37;;;;;;;0.00;0.00;;;9.00;99.90;;;;;;5115175;28;20093;-80
2022/05/05 06:15:03;;;;;;;0.03;0.03;;;9.10;99.90;;;;;;5097911;28;20050;-79
2022/05/05 06:17:29;;;;;;;0.00;0.00;;;9.20;99.90;;;;;;5114636;28;20517;-80
2022/05/05 06:19:55;;;;;;;0.80;0.10;;;9.40;99.90;;;;;;5097907;28;20052;-79
2022/05/05 06:22:20;;;;;;;1.00;0.35;;;9.60;99.90;;;;;;5097676;28;20075;-80
2022/05/05 06:24:46;;;;;;;1.08;0.52;;;9.90;99.90;;;;;;5098048;28;20101;-79
2022/05/05 06:27:11;;;;;;;0.00;0.00;;;10.20;99.90;;;;;;5097768;28;20051;-79
2022/05/05 06:29:37;;;;;;;1.17;0.85;;;10.40;99.90;;;;;;5114484;28;20051;-80
2022/05/05 06:32:03;;;;;;;0.10;0.00;;;10.50;99.90;;;;;;5097646;28;20050;-80
2022/05/05 06:34:29;;;;;;;1.55;0.65;;;10.60;99.90;;;;;;5114409;28;20048;-80
2022/05/05 06:36:54;;;;;;;0.00;0.00;;;10.70;99.90;;;;;;5097590;28;20130;-80
2022/05/05 06:39:20;;;;;;;0.00;0.00;;;10.80;99.90;;;;;;5097473;28;20051;-80
2022/05/05 06:41:46;;;;;;;0.00;0.00;;;10.90;99.90;;;;;;5114257;28;20054;-80
2022/05/05 06:44:11;;;;;;;0.00;0.00;;;10.90;99.90;;;;;;5114258;28;20050;-80
2022/05/05 06:46:38;;;;;;;0.00;0.00;;;11.00;99.90;;;;;;5098053;28;20047;-80
2022/05/05 06:49:05;;;;;;;0.10;0.00;;;11.20;99.90;;;;;;5114658;28;20054;-79
2022/05/05 06:51:30;;;;;;;0.00;0.00;;;11.60;99.90;;;;;;5097176;28;20051;-79
2022/05/05 06:53:56;;;;;;;0.10;0.10;;;12.40;99.90;;;;;;5114222;28;20042;-79
2022/05/05 06:56:24;;;;;;;0.00;0.00;;;13.30;99.90;;;;;;5114066;28;20450;-80
2022/05/05 06:58:49;;;;;;;0.10;0.00;;;14.10;99.90;;;;;;5113980;28;20046;-80
2022/05/05 07:06:43;;;;;;;0.10;0.10;;;15.70;98.30;;;;;;5114306;28;20059;-80
2022/05/05 07:11:54;;;;;;;0.00;0.00;;;15.90;99.40;;;;;;5114319;28;20143;-79
2022/05/05 07:14:19;;;;;;;0.75;0.55;;;16.10;98.70;;;;;;5114217;28;20051;-79
2022/05/05 07:16:45;;;;;;;0.00;0.00;;;16.60;97.10;;;;;;5096985;28;20120;-79
2022/05/05 07:19:11;;;;;;;0.03;0.00;;;16.80;96.00;;;;;;5113799;28;20039;-80
2022/05/05 07:21:37;;;;;;;0.00;0.00;;;17.10;96.70;;;;;;5095553;28;20048;-79
2022/05/05 07:24:04;;;;;;;0.00;0.00;;;17.30;95.60;;;;;;5113901;28;20055;-79
2022/05/05 07:26:29;;;;;;;0.00;0.00;;;17.30;95.30;;;;;;5096639;28;20098;-82
2022/05/05 07:28:55;;;;;;;0.22;0.00;;;17.30;94.30;;;;;;5113208;28;20075;-82
2022/05/05 07:31:21;;;;;;;0.00;0.00;;;17.10;91.90;;;;;;5096129;28;20055;-82
2022/05/05 07:33:46;;;;;;;0.00;0.00;;;16.80;90.80;;;;;;5096247;28;20081;-81
2022/05/05 07:36:12;;;;;;;0.00;0.00;;;16.70;91.90;;;;;;5113191;28;20039;-82
2022/05/05 07:38:38;;;;;;;0.00;0.00;;;16.50;90.90;;;;;;5113679;28;20123;-81
2022/05/05 07:41:04;;;;;;;0.00;0.00;;;16.50;91.60;;;;;;5095984;28;20147;-82
2022/05/05 07:43:30;;;;;;;0.00;0.00;;;16.40;90.90;;;;;;5113199;28;20122;-81
2022/05/05 07:45:56;;;;;;;0.00;0.00;;;16.50;90.70;;;;;;5113013;28;20459;-82
2022/05/05 07:48:21;;;;;;;0.03;0.00;;;16.50;90.70;;;;;;5113170;28;20138;-81
2022/05/05 07:50:47;;;;;;;0.00;0.00;;;16.70;92.50;;;;;;5113231;28;20071;-81
2022/05/05 07:53:14;;;;;;;0.00;0.00;;;16.90;91.60;;;;;;5112981;28;20130;-80
2022/05/05 07:55:40;;;;;;;1.27;0.60;;;17.00;90.10;;;;;;5095700;28;20059;-80
2022/05/05 07:58:06;;;;;;;0.55;0.55;;;17.20;89.80;;;;;;5096138;28;20059;-80
2022/05/05 08:00:32;;;;;;;0.63;0.35;;;17.00;87.40;;;;;;5096112;28;20050;-80
2022/05/05 08:02:57;;;;;;;0.17;0.17;;;17.10;84.70;;;;;;5095249;28;20058;-81
2022/05/05 08:05:23;;;;;;;0.00;0.00;;;17.10;87.20;;;;;;5112794;28;20048;-81
2022/05/05 08:07:49;;;;;;;0.00;0.00;;;17.10;90.10;;;;;;5095790;28;20036;-81
2022/05/05 08:10:20;;;;;;;0.10;0.10;;;17.20;86.90;;;;;;5112936;28;20415;-82
2022/05/05 08:12:47;;;;;;;0.10;0.10;;;17.10;90.20;;;;;;5113182;28;20051;-81
2022/05/05 08:15:14;;;;;;;0.00;0.00;;;17.10;87.80;;;;;;5095714;28;20411;-82
2022/05/05 08:17:40;;;;;;;0.00;0.00;;;17.40;86.20;;;;;;5112169;28;20402;-82
2022/05/05 08:20:07;;;;;;;0.08;0.00;;;17.30;83.30;;;;;;5095439;28;20040;-83
2022/05/05 08:22:33;;;;;;;1.45;0.40;;;17.30;86.80;;;;;;5095647;28;20530;-82
2022/05/05 08:30:27;;;;;;;0.00;0.00;;;17.30;83.10;;;;;;5112910;28;20052;-81
2022/05/05 08:32:53;;;;;;;0.10;0.10;;;17.40;83.70;;;;;;5113736;28;20475;-80
2022/05/05 08:35:19;;;;;;;0.00;0.00;;;17.50;81.80;;;;;;5099987;28;20051;-81
2022/05/05 08:37:45;;;;;;;0.10;0.10;;;17.60;82.00;;;;;;5117238;28;20455;-80
2022/05/05 08:40:14;;;;;;;0.00;0.00;;;17.70;82.40;;;;;;5116814;28;20134;-80
2022/05/05 08:42:40;;;;;;;0.03;0.00;;;17.70;81.30;;;;;;5116361;28;20039;-80
2022/05/05 08:45:06;;;;;;;0.00;0.00;;;17.70;82.00;;;;;;5116620;28;20047;-80
2022/05/05 08:47:33;;;;;;;0.20;0.15;;;17.80;81.30;;;;;;5116677;28;20476;-80
2022/05/05 08:50:01;;;;;;;0.00;0.00;;;17.80;78.70;;;;;;5116865;28;20043;-80
2022/05/05 08:52:34;;;;;;;0.22;0.10;;;17.70;81.30;;;;;;5099663;28;20051;-80
2022/05/05 08:55:00;;;;;;;0.00;0.00;;;17.70;78.80;;;;;;5099562;28;20474;-81
2022/05/05 08:57:27;;;;;;;0.00;0.00;;;17.80;78.50;;;;;;5115319;28;20086;-82
2022/05/05 08:59:55;;;;;;;0.00;0.00;;;17.70;78.20;;;;;;5115475;28;20523;-81
2022/05/05 09:02:21;;;;;;;0.00;0.00;;;17.80;77.80;;;;;;5099133;28;20181;-81
2022/05/05 09:04:47;;;;;;;0.75;0.30;;;17.80;76.70;;;;;;5116239;28;20075;-81
2022/05/05 09:07:13;;;;;;;0.00;0.00;;;18.00;79.20;;;;;;5098761;28;20562;-82
2022/05/05 09:09:39;;;;;;;1.65;0.40;;;18.20;80.80;;;;;;5115798;28;20129;-81
2022/05/05 09:12:09;;;;;;;0.13;0.00;;;18.10;76.70;;;;;;5116082;28;20047;-81
2022/05/05 09:14:36;;;;;;;0.28;0.10;;;18.30;78.70;;;;;;5115698;28;20099;-82
2022/05/05 09:17:06;;;;;;;0.45;0.30;;;18.20;77.50;;;;;;5098534;28;20059;-80
2022/05/05 09:19:37;;;;;;;0.00;0.00;;;18.40;79.50;;;;;;5099280;28;20052;-81
2022/05/05 09:22:05;;;;;;;0.00;0.00;;;18.40;78.30;;;;;;5098925;28;20052;-81
2022/05/05 09:24:36;;;;;;;1.08;0.32;;;18.50;78.70;;;;;;5115886;28;20108;-80
2022/05/05 09:27:19;;;;;;;0.00;0.00;;;18.80;78.10;;;;;;5098737;28;20055;-81
2022/05/05 09:30:10;;;;;;;0.00;0.00;;;18.90;79.60;;;;;;5099014;28;20050;-81
2022/05/05 09:32:41;;;;;;;0.00;0.00;;;19.20;76.10;;;;;;5098532;28;20441;-79
2022/05/05 09:35:19;;;;;;;0.35;0.20;;;19.40;79.50;;;;;;5099337;28;20423;-79
2022/05/05 09:37:50;;;;;;;0.30;0.30;;;19.50;76.00;;;;;;5098381;28;20415;-79
2022/05/05 09:40:18;;;;;;;1.95;0.38;;;19.40;75.40;;;;;;5098467;28;20140;-79
2022/05/05 09:42:50;;;;;;;0.00;0.00;;;19.30;76.90;;;;;;5115367;28;20059;-79
2022/05/05 09:45:29;;;;;;;0.28;0.20;;;19.40;75.70;;;;;;5114310;28;20069;-79
2022/05/05 09:48:06;;;;;;;0.00;0.00;;;19.40;73.90;;;;;;5115684;28;20078;-79
2022/05/05 09:50:34;;;;;;;0.10;0.08;;;19.50;74.70;;;;;;5115868;28;20126;-79
2022/05/05 09:58:42;;;;;;;0.00;0.00;;;19.90;76.30;;;;;;5115637;28;20052;-79
2022/05/05 10:01:09;;;;;;;1.13;0.00;;;20.10;74.70;;;;;;5098362;28;20406;-79
2022/05/05 10:04:00;;;;;;;0.00;0.00;;;20.20;74.10;;;;;;5098143;28;20063;-81
2022/05/05 10:06:32;;;;;;;0.00;0.00;;;20.20;73.70;;;;;;5115420;28;20039;-80
2022/05/05 10:09:12;;;;;;;0.00;0.00;;;20.40;74.50;;;;;;5098611;28;20107;-80
2022/05/05 10:11:38;;;;;;;0.00;0.00;;;20.60;72.20;;;;;;5098146;28;20129;-80
2022/05/05 10:14:10;;;;;;;0.03;0.00;;;20.70;71.80;;;;;;5115036;28;20083;-80
2022/05/05 10:16:37;;;;;;;0.10;0.10;;;20.60;71.40;;;;;;5114665;28;20062;-80
2022/05/05 10:19:04;;;;;;;0.45;0.20;;;20.70;71.00;;;;;;5114768;28;20055;-80
2022/05/05 10:21:50;;;;;;;0.00;0.00;;;20.70;72.80;;;;;;5114823;28;20119;-80
2022/05/05 10:24:40;;;;;;;0.00;0.00;;;20.70;71.20;;;;;;5115133;28;20093;-80
2022/05/05 10:27:06;;;;;;;0.00;0.00;;;20.70;70.80;;;;;;5114679;28;20051;-80
2022/05/05 10:29:31;;;;;;;0.00;0.00;;;20.80;70.20;;;;;;5115412;28;20040;-80
2022/05/05 10:32:12;;;;;;;0.00;0.00;;;20.90;69.00;;;;;;5114743;28;20487;-79
2022/05/05 10:34:45;;;;;;;0.00;0.00;;;21.00;70.90;;;;;;5114715;28;20062;-81
2022/05/05 10:37:12;;;;;;;0.00;0.00;;;21.10;71.90;;;;;;5097785;28;20399;-81
2022/05/05 10:39:46;;;;;;;0.00;0.00;;;21.20;71.70;;;;;;5114373;28;20540;-80
2022/05/05 10:42:15;;;;;;;0.47;0.25;;;21.40;71.20;;;;;;5097233;28;20042;-80
2022/05/05 10:45:08;;;;;;;0.08;0.00;;;21.60;70.10;;;;;;5114000;28;20092;-80
2022/05/05 10:47:55;;;;;;;0.00;0.00;;;21.80;68.10;;;;;;5097545;28;20058;-80
2022/05/05 10:50:33;;;;;;;0.10;0.10;;;21.80;68.70;;;;;;5114271;28;20051;-80
2022/05/05 10:53:02;;;;;;;0.00;0.00;;;21.70;67.90;;;;;;5097596;28;20429;-80
2022/05/05 10:55:45;;;;;;;0.00;0.00;;;21.90;64.50;;;;;;5114175;28;20532;-80
2022/05/05 10:58:12;;;;;;;0.00;0.00;;;21.90;65.70;;;;;;5114204;28;20130;-80
2022/05/05 11:00:42;;;;;;;0.00;0.00;;;22.20;67.60;;;;;;5097054;28;20510;-81
2022/05/05 11:03:16;;;;;;;0.00;0.00;;;22.20;64.70;;;;;;5113276;28;20051;-80
2022/05/05 11:05:42;;;;;;;0.00;0.00;;;22.20;67.90;;;;;;5097456;28;20414;-80
2022/05/05 11:08:08;;;;;;;0.00;0.00;;;22.50;66.30;;;;;;5113662;28;20377;-81
2022/05/05 11:10:48;;;;;;;0.40;0.08;;;22.70;63.90;;;;;;5114159;28;20475;-80
2022/05/05 11:13:37;;;;;;;0.00;0.00;;;22.70;65.40;;;;;;5114526;28;20391;-80
2022/05/05 11:22:24;;;;;;;0.00;0.00;;;22.80;62.50;;;;;;5113888;28;20455;-81
2022/05/05 11:24:52;;;;;;;0.00;0.00;;;23.00;64.10;;;;;;5096936;28;20511;-81
2022/05/05 11:27:24;;;;;;;0.00;0.00;;;22.90;61.00;;;;;;5096818;28;20044;-80
2022/05/05 11:29:59;;;;;;;0.10;0.10;;;22.80;62.10;;;;;;5097342;28;20048;-81
2022/05/05 11:32:29;;;;;;;0.05;0.05;;;22.90;60.50;;;;;;5113454;28;20048;-80
2022/05/05 11:34:55;;;;;;;0.10;0.10;;;22.80;60.80;;;;;;5113473;28;20039;-81
2022/05/05 11:37:25;;;;;;;0.08;0.08;;;22.70;61.00;;;;;;5112900;28;20051;-81
2022/05/05 11:39:50;;;;;;;0.65;0.15;;;22.50;60.40;;;;;;5096283;28;20185;-80
2022/05/05 11:42:17;;;;;;;0.10;0.00;;;22.50;61.70;;;;;;5113082;28;20130;-81
2022/05/05 11:44:45;;;;;;;0.28;0.00;;;22.70;64.30;;;;;;5111988;28;20052;-80
2022/05/05 11:47:18;;;;;;;0.00;0.00;;;22.70;58.30;;;;;;5112352;28;20514;-80
2022/05/05 11:49:51;;;;;;;0.00;0.00;;;22.60;61.40;;;;;;5112740;28;20138;-81
2022/05/05 11:52:25;;;;;;;0.40;0.00;;;22.70;61.70;;;;;;5113275;28;20044;-81
2022/05/05 11:54:55;;;;;;;0.13;0.05;;;22.60;59.50;;;;;;5096310;28;20383;-81
2022/05/05 11:57:35;;;;;;;0.30;0.05;;;22.40;60.70;;;;;;5096876;28;20140;-81
2022/05/05 12:02:46;;;;;;;0.00;0.00;;;22.20;62.80;;;;;;5112761;28;20059;-81
2022/05/05 12:05:13;;;;;;;0.00;0.00;;;22.30;63.30;;;;;;5096256;28;20063;-81
2022/05/05 12:07:41;;;;;;;0.08;0.00;;;22.40;61.80;;;;;;5097748;28;20120;-81
2022/05/05 12:10:09;;;;;;;0.00;0.00;;;22.40;61.40;;;;;;5119873;27;20048;-80
2022/05/05 12:12:38;;;;;;;0.40;0.00;;;22.30;60.30;;;;;;5120133;28;20084;-81
2022/05/05 12:15:06;;;;;;;0.35;0.03;;;22.40;63.10;;;;;;5102717;28;20487;-80
2022/05/05 12:17:42;;;;;;;0.05;0.05;;;22.30;58.40;;;;;;5102461;28;20491;-81
2022/05/05 12:20:11;;;;;;;0.10;0.10;;;22.10;60.50;;;;;;5103348;28;20056;-81
2022/05/05 12:22:42;;;;;;;0.00;0.00;;;22.10;60.00;;;;;;5102323;28;20101;-81
2022/05/05 12:25:14;;;;;;;0.00;0.00;;;22.10;62.40;;;;;;5102474;28;20062;-81
2022/05/05 12:27:41;;;;;;;0.20;0.15;;;22.10;61.10;;;;;;5118480;28;20503;-81
2022/05/05 12:30:08;;;;;;;0.08;0.05;;;22.00;61.80;;;;;;5102192;28;20103;-81
2022/05/05 12:32:33;;;;;;;0.00;0.00;;;22.00;60.80;;;;;;5119414;28;20542;-81
2022/05/05 12:35:10;;;;;;;0.00;0.00;;;22.10;60.40;;;;;;5120219;28;20083;-81
2022/05/05 12:37:37;;;;;;;0.20;0.20;;;22.00;60.70;;;;;;5102754;28;20051;-81
2022/05/05 12:40:02;;;;;;;0.00;0.00;;;22.20;60.60;;;;;;5102581;28;20066;-81
2022/05/05 12:42:48;;;;;;;0.25;0.25;;;22.30;59.80;;;;;;5102636;28;20047;-80
2022/05/05 12:45:18;;;;;;;0.00;0.00;;;22.40;59.80;;;;;;5102772;28;20391;-81
2022/05/05 12:47:46;;;;;;;0.05;0.05;;;22.60;58.30;;;;;;5119251;28;20521;-81
2022/05/05 12:50:27;;;;;;;0.10;0.00;;;22.80;59.70;;;;;;5102297;28;20559;-81
2022/05/05 13:01:06;;;;;;;0.00;0.00;;;22.80;57.60;;;;;;5119385;28;20048;-81
2022/05/05 13:03:32;;;;;;;0.00;0.00;;;23.10;58.20;;;;;;5119329;28;20078;-81
2022/05/05 13:05:58;;;;;;;0.85;0.20;;;23.10;59.20;;;;;;5102760;28;20463;-81
2022/05/05 13:08:24;;;;;;;0.00;0.00;;;22.90;57.20;;;;;;5102637;28;20039;-81
2022/05/05 13:10:50;;;;;;;0.00;0.00;;;23.10;58.20;;;;;;5118869;28;20514;-81
2022/05/05 13:13:16;;;;;;;0.20;0.00;;;23.20;58.60;;;;;;5101990;28;20052;-81
2022/05/05 13:15:42;;;;;;;0.00;0.00;;;23.10;56.70;;;;;;5102306;28;20364;-81
2022/05/05 13:18:08;;;;;;;0.00;0.00;;;23.20;58.00;;;;;;5119516;28;20047;-81
2022/05/05 13:20:35;;;;;;;0.00;0.00;;;23.30;57.90;;;;;;5097873;28;20052;-81
2022/05/05 13:23:01;;;;;;;0.00;0.00;;;23.30;58.80;;;;;;5115902;28;20054;-79
2022/05/05 13:25:27;;;;;;;0.00;0.00;;;23.40;57.20;;;;;;5099164;28;20063;-79
2022/05/05 13:27:53;;;;;;;0.00;0.00;;;23.20;55.30;;;;;;5115979;28;20040;-79
2022/05/05 13:30:19;;;;;;;0.00;0.00;;;22.90;55.30;;;;;;5115826;28;20092;-79
2022/05/05 13:32:45;;;;;;;0.00;0.00;;;22.80;55.50;;;;;;5115809;28;20043;-80
2022/05/05 13:35:10;;;;;;;0.00;0.00;;;22.70;56.50;;;;;;5115818;28;20433;-80
2022/05/05 13:37:37;;;;;;;0.00;0.00;;;22.80;57.50;;;;;;5115684;28;20070;-80
2022/05/05 13:40:07;;;;;;;0.00;0.00;;;22.90;58.10;;;;;;5115725;28;20043;-80
2022/05/05 13:42:33;;;;;;;0.00;0.00;;;22.90;58.10;;;;;;5115485;28;20050;-80
2022/05/05 13:44:59;;;;;;;0.00;0.00;;;22.80;59.10;;;;;;5098702;28;20139;-80
2022/05/05 13:47:25;;;;;;;0.52;0.22;;;22.60;56.90;;;;;;5115641;28;20079;-80
2022/05/05 13:49:51;;;;;;;0.00;0.00;;;22.50;58.70;;;;;;5098513;28;20083;-80